sensor_id;sensor_type;location;lat;lon;timestamp;P1;durP1;ratioP1;P2;durP2;ratioP2
24435;SDS011;12616;52.470;13.436;2023-11-19T00:20:39;7.80;;;6.78;;
24435;SDS011;12616;52.470;13.436;2023-11-19T00:25:48;11.25;;;7.32;;
24435;SDS011;12616;52.470;13.436;2023-11-19T00:31:25;11.60;;;8.60;;
24435;SDS011;12616;52.470;13.436;2023-11-19T01:01:43;7.47;;;5.88;;
24435;SDS011;12616;52.470;13.436;2023-11-19T01:18:33;6.90;;;6.15;;
24435;SDS011;12616;52.470;13.436;2023-11-19T01:28:19;9.30;;;8.30;;
24435;SDS011;12616;52.470;13.436;2023-11-19T01:49:17;7.68;;;6.63;;
24435;SDS011;12616;52.470;13.436;2023-11-19T02:10:20;6.93;;;5.78;;
24435;SDS011;12616;52.470;13.436;2023-11-19T02:20:12;6.53;;;6.00;;
24435;SDS011;12616;52.470;13.436;2023-11-19T02:23:02;14.18;;;8.05;;
24435;SDS011;12616;52.470;13.436;2023-11-19T02:26:04;10.10;;;5.82;;
24435;SDS011;12616;52.470;13.436;2023-11-19T02:55:26;7.65;;;5.80;;
24435;SDS011;12616;52.470;13.436;2023-11-19T03:34:51;7.75;;;6.07;;
24435;SDS011;12616;52.470;13.436;2023-11-19T04:27:56;9.35;;;6.43;;
24435;SDS011;12616;52.470;13.436;2023-11-19T04:40:47;9.93;;;7.00;;
24435;SDS011;12616;52.470;13.436;2023-11-19T04:47:17;8.13;;;6.43;;
24435;SDS011;12616;52.470;13.436;2023-11-19T05:05:58;12.95;;;9.80;;
24435;SDS011;12616;52.470;13.436;2023-11-19T05:14:54;10.00;;;8.43;;
24435;SDS011;12616;52.470;13.436;2023-11-19T05:17:49;12.30;;;8.50;;
24435;SDS011;12616;52.470;13.436;2023-11-19T05:26:30;9.77;;;8.57;;
24435;SDS011;12616;52.470;13.436;2023-11-19T05:29:24;11.60;;;8.82;;
24435;SDS011;12616;52.470;13.436;2023-11-19T05:32:12;11.35;;;7.70;;
24435;SDS011;12616;52.470;13.436;2023-11-19T05:34:58;10.70;;;8.40;;
24435;SDS011;12616;52.470;13.436;2023-11-19T05:37:40;9.90;;;7.80;;
24435;SDS011;12616;52.470;13.436;2023-11-19T05:40:23;8.75;;;7.40;;
24435;SDS011;12616;52.470;13.436;2023-11-19T05:43:00;12.02;;;8.52;;
24435;SDS011;12616;52.470;13.436;2023-11-19T05:45:46;11.63;;;8.55;;
24435;SDS011;12616;52.470;13.436;2023-11-19T05:48:34;10.93;;;9.05;;
24435;SDS011;12616;52.470;13.436;2023-11-19T05:51:05;10.70;;;9.60;;
24435;SDS011;12616;52.470;13.436;2023-11-19T05:53:33;13.30;;;10.90;;
24435;SDS011;12616;52.470;13.436;2023-11-19T05:56:16;11.85;;;8.85;;
24435;SDS011;12616;52.470;13.436;2023-11-19T05:58:53;11.55;;;9.15;;
24435;SDS011;12616;52.470;13.436;2023-11-19T06:01:26;10.35;;;8.52;;
24435;SDS011;12616;52.470;13.436;2023-11-19T06:07:23;10.88;;;7.90;;
24435;SDS011;12616;52.470;13.436;2023-11-19T06:10:01;12.35;;;9.23;;
24435;SDS011;12616;52.470;13.436;2023-11-19T06:12:57;9.60;;;8.60;;
24435;SDS011;12616;52.470;13.436;2023-11-19T06:15:52;11.75;;;9.50;;
24435;SDS011;12616;52.470;13.436;2023-11-19T06:18:30;9.40;;;8.30;;
24435;SDS011;12616;52.470;13.436;2023-11-19T06:21:24;9.15;;;8.00;;
24435;SDS011;12616;52.470;13.436;2023-11-19T06:24:04;10.13;;;8.40;;
24435;SDS011;12616;52.470;13.436;2023-11-19T06:26:37;9.43;;;7.60;;
24435;SDS011;12616;52.470;13.436;2023-11-19T06:29:10;10.60;;;8.82;;
24435;SDS011;12616;52.470;13.436;2023-11-19T06:31:53;9.55;;;8.55;;
24435;SDS011;12616;52.470;13.436;2023-11-19T06:34:34;10.70;;;8.02;;
24435;SDS011;12616;52.470;13.436;2023-11-19T06:37:09;15.02;;;9.23;;
24435;SDS011;12616;52.470;13.436;2023-11-19T07:06:00;8.45;;;7.50;;
24435;SDS011;12616;52.470;13.436;2023-11-19T07:12:36;9.50;;;7.50;;
24435;SDS011;12616;52.470;13.436;2023-11-19T07:18:53;7.93;;;7.10;;
24435;SDS011;12616;52.470;13.436;2023-11-19T07:25:56;9.02;;;7.78;;
24435;SDS011;12616;52.470;13.436;2023-11-19T07:29:28;9.32;;;7.30;;
24435;SDS011;12616;52.470;13.436;2023-11-19T07:35:11;8.98;;;6.50;;
24435;SDS011;12616;52.470;13.436;2023-11-19T07:44:04;7.75;;;6.88;;
24435;SDS011;12616;52.470;13.436;2023-11-19T07:47:05;9.43;;;8.50;;
24435;SDS011;12616;52.470;13.436;2023-11-19T07:49:35;9.63;;;7.97;;
24435;SDS011;12616;52.470;13.436;2023-11-19T07:52:21;9.73;;;7.85;;
24435;SDS011;12616;52.470;13.436;2023-11-19T07:55:01;9.15;;;7.32;;
24435;SDS011;12616;52.470;13.436;2023-11-19T08:00:41;8.82;;;7.38;;
24435;SDS011;12616;52.470;13.436;2023-11-19T08:03:19;8.90;;;7.22;;
24435;SDS011;12616;52.470;13.436;2023-11-19T08:05:55;8.73;;;7.18;;
24435;SDS011;12616;52.470;13.436;2023-11-19T08:08:27;7.88;;;6.95;;
24435;SDS011;12616;52.470;13.436;2023-11-19T08:11:03;8.55;;;7.07;;
24435;SDS011;12616;52.470;13.436;2023-11-19T08:13:37;9.48;;;7.75;;
24435;SDS011;12616;52.470;13.436;2023-11-19T08:16:08;8.18;;;7.32;;
24435;SDS011;12616;52.470;13.436;2023-11-19T08:18:44;8.52;;;7.13;;
24435;SDS011;12616;52.470;13.436;2023-11-19T08:21:22;9.18;;;7.55;;
24435;SDS011;12616;52.470;13.436;2023-11-19T08:23:52;9.07;;;7.28;;
24435;SDS011;12616;52.470;13.436;2023-11-19T08:26:19;7.75;;;6.80;;
24435;SDS011;12616;52.470;13.436;2023-11-19T08:28:51;7.30;;;6.38;;
24435;SDS011;12616;52.470;13.436;2023-11-19T08:31:18;10.70;;;7.43;;
24435;SDS011;12616;52.470;13.436;2023-11-19T08:33:46;8.73;;;6.82;;
24435;SDS011;12616;52.470;13.436;2023-11-19T08:36:35;11.13;;;7.65;;
24435;SDS011;12616;52.470;13.436;2023-11-19T08:39:06;9.45;;;7.70;;
24435;SDS011;12616;52.470;13.436;2023-11-19T08:41:44;8.30;;;7.28;;
24435;SDS011;12616;52.470;13.436;2023-11-19T08:44:13;8.68;;;7.75;;
24435;SDS011;12616;52.470;13.436;2023-11-19T08:46:47;9.48;;;8.27;;
24435;SDS011;12616;52.470;13.436;2023-11-19T08:49:15;9.82;;;7.35;;
24435;SDS011;12616;52.470;13.436;2023-11-19T08:51:42;9.68;;;8.18;;
24435;SDS011;12616;52.470;13.436;2023-11-19T08:54:10;12.02;;;8.00;;
24435;SDS011;12616;52.470;13.436;2023-11-19T08:56:40;11.40;;;7.68;;
24435;SDS011;12616;52.470;13.436;2023-11-19T08:59:11;8.88;;;7.45;;
24435;SDS011;12616;52.470;13.436;2023-11-19T09:01:40;8.32;;;6.82;;
24435;SDS011;12616;52.470;13.436;2023-11-19T09:04:07;8.68;;;6.95;;
24435;SDS011;12616;52.470;13.436;2023-11-19T09:06:35;20.88;;;18.67;;
24435;SDS011;12616;52.470;13.436;2023-11-19T09:09:02;8.35;;;7.50;;
24435;SDS011;12616;52.470;13.436;2023-11-19T09:11:30;7.95;;;7.07;;
24435;SDS011;12616;52.470;13.436;2023-11-19T09:13:58;9.93;;;7.10;;
24435;SDS011;12616;52.470;13.436;2023-11-19T09:16:25;8.32;;;6.70;;
24435;SDS011;12616;52.470;13.436;2023-11-19T09:18:53;9.68;;;8.05;;
24435;SDS011;12616;52.470;13.436;2023-11-19T09:21:23;9.88;;;8.13;;
24435;SDS011;12616;52.470;13.436;2023-11-19T09:23:50;11.82;;;8.48;;
24435;SDS011;12616;52.470;13.436;2023-11-19T09:26:22;11.52;;;9.13;;
24435;SDS011;12616;52.470;13.436;2023-11-19T09:28:49;16.23;;;9.30;;
24435;SDS011;12616;52.470;13.436;2023-11-19T09:31:17;8.27;;;7.47;;
24435;SDS011;12616;52.470;13.436;2023-11-19T09:33:47;8.52;;;7.22;;
24435;SDS011;12616;52.470;13.436;2023-11-19T09:36:16;8.03;;;6.20;;
24435;SDS011;12616;52.470;13.436;2023-11-19T09:38:48;6.55;;;5.82;;
24435;SDS011;12616;52.470;13.436;2023-11-19T09:41:15;8.50;;;6.30;;
24435;SDS011;12616;52.470;13.436;2023-11-19T09:43:46;6.45;;;5.78;;
24435;SDS011;12616;52.470;13.436;2023-11-19T09:46:19;6.57;;;5.97;;
24435;SDS011;12616;52.470;13.436;2023-11-19T09:48:52;8.10;;;5.47;;
24435;SDS011;12616;52.470;13.436;2023-11-19T10:08:40;5.90;;;4.83;;
24435;SDS011;12616;52.470;13.436;2023-11-19T10:21:21;4.37;;;3.97;;
24435;SDS011;12616;52.470;13.436;2023-11-19T10:48:32;7.67;;;4.53;;
24435;SDS011;12616;52.470;13.436;2023-11-19T10:54:51;9.10;;;5.20;;
24435;SDS011;12616;52.470;13.436;2023-11-19T11:02:10;6.80;;;4.10;;
24435;SDS011;12616;52.470;13.436;2023-11-19T11:11:59;7.70;;;4.10;;
24435;SDS011;12616;52.470;13.436;2023-11-19T11:16:13;8.13;;;3.70;;
24435;SDS011;12616;52.470;13.436;2023-11-19T11:21:57;8.77;;;5.80;;
24435;SDS011;12616;52.470;13.436;2023-11-19T11:36:02;9.47;;;4.30;;
24435;SDS011;12616;52.470;13.436;2023-11-19T11:49:15;9.73;;;4.63;;
24435;SDS011;12616;52.470;13.436;2023-11-19T12:23:23;17.17;;;5.83;;
24435;SDS011;12616;52.470;13.436;2023-11-19T12:32:19;18.60;;;5.13;;
24435;SDS011;12616;52.470;13.436;2023-11-19T12:34:07;8.53;;;5.43;;
24435;SDS011;12616;52.470;13.436;2023-11-19T12:36:23;17.00;;;5.80;;
24435;SDS011;12616;52.470;13.436;2023-11-19T12:39:01;9.60;;;4.77;;
24435;SDS011;12616;52.470;13.436;2023-11-19T12:42:15;11.80;;;4.57;;
24435;SDS011;12616;52.470;13.436;2023-11-19T12:45:21;13.10;;;4.30;;
24435;SDS011;12616;52.470;13.436;2023-11-19T12:55:41;17.20;;;4.67;;
24435;SDS011;12616;52.470;13.436;2023-11-19T13:25:22;12.83;;;4.57;;
24435;SDS011;12616;52.470;13.436;2023-11-19T13:27:49;14.77;;;5.50;;
24435;SDS011;12616;52.470;13.436;2023-11-19T13:30:20;12.97;;;5.70;;
24435;SDS011;12616;52.470;13.436;2023-11-19T13:32:49;12.37;;;6.23;;
24435;SDS011;12616;52.470;13.436;2023-11-19T13:35:17;14.33;;;4.30;;
24435;SDS011;12616;52.470;13.436;2023-11-19T13:37:58;16.67;;;4.70;;
24435;SDS011;12616;52.470;13.436;2023-11-19T13:40:48;18.67;;;5.80;;
24435;SDS011;12616;52.470;13.436;2023-11-19T13:43:56;19.13;;;5.37;;
24435;SDS011;12616;52.470;13.436;2023-11-19T13:46:37;16.33;;;4.77;;
24435;SDS011;12616;52.470;13.436;2023-11-19T13:49:08;14.57;;;5.60;;
24435;SDS011;12616;52.470;13.436;2023-11-19T13:52:11;22.73;;;5.50;;
24435;SDS011;12616;52.470;13.436;2023-11-19T13:54:55;12.03;;;4.90;;
24435;SDS011;12616;52.470;13.436;2023-11-19T13:57:41;14.93;;;4.80;;
24435;SDS011;12616;52.470;13.436;2023-11-19T14:00:20;9.27;;;5.03;;
24435;SDS011;12616;52.470;13.436;2023-11-19T14:03:10;17.97;;;6.47;;
24435;SDS011;12616;52.470;13.436;2023-11-19T14:06:16;7.90;;;4.40;;
24435;SDS011;12616;52.470;13.436;2023-11-19T14:12:08;15.07;;;6.70;;
24435;SDS011;12616;52.470;13.436;2023-11-19T14:14:46;16.33;;;4.60;;
24435;SDS011;12616;52.470;13.436;2023-11-19T14:17:27;15.50;;;5.30;;
24435;SDS011;12616;52.470;13.436;2023-11-19T14:20:44;14.07;;;5.97;;
24435;SDS011;12616;52.470;13.436;2023-11-19T14:23:31;20.77;;;6.67;;
24435;SDS011;12616;52.470;13.436;2023-11-19T14:26:15;20.27;;;6.50;;
24435;SDS011;12616;52.470;13.436;2023-11-19T14:29:06;18.73;;;7.57;;
24435;SDS011;12616;52.470;13.436;2023-11-19T14:32:00;15.53;;;6.20;;
24435;SDS011;12616;52.470;13.436;2023-11-19T14:34:35;13.23;;;6.50;;
24435;SDS011;12616;52.470;13.436;2023-11-19T14:41:17;21.67;;;7.00;;
24435;SDS011;12616;52.470;13.436;2023-11-19T14:50:47;19.53;;;7.93;;
24435;SDS011;12616;52.470;13.436;2023-11-19T14:57:02;28.40;;;5.87;;
24435;SDS011;12616;52.470;13.436;2023-11-19T14:59:53;17.90;;;7.13;;
24435;SDS011;12616;52.470;13.436;2023-11-19T15:37:51;15.13;;;6.60;;
24435;SDS011;12616;52.470;13.436;2023-11-19T15:45:17;19.50;;;5.70;;
24435;SDS011;12616;52.470;13.436;2023-11-19T16:01:30;20.97;;;5.37;;
24435;SDS011;12616;52.470;13.436;2023-11-19T16:44:21;18.30;;;5.30;;
24435;SDS011;12616;52.470;13.436;2023-11-19T17:53:03;12.83;;;6.80;;
24435;SDS011;12616;52.470;13.436;2023-11-19T19:27:23;26.00;;;10.47;;
24435;SDS011;12616;52.470;13.436;2023-11-19T19:30:38;23.73;;;8.97;;
24435;SDS011;12616;52.470;13.436;2023-11-19T20:14:03;29.13;;;7.77;;
24435;SDS011;12616;52.470;13.436;2023-11-19T20:16:30;17.93;;;7.70;;
24435;SDS011;12616;52.470;13.436;2023-11-19T20:19:03;13.53;;;6.60;;
24435;SDS011;12616;52.470;13.436;2023-11-19T20:21:43;14.30;;;6.53;;
24435;SDS011;12616;52.470;13.436;2023-11-19T20:24:56;15.67;;;6.53;;
24435;SDS011;12616;52.470;13.436;2023-11-19T21:19:40;17.63;;;6.50;;
24435;SDS011;12616;52.470;13.436;2023-11-19T21:22:23;12.43;;;5.90;;
24435;SDS011;12616;52.470;13.436;2023-11-19T21:25:07;18.83;;;7.10;;
24435;SDS011;12616;52.470;13.436;2023-11-19T21:30:25;13.73;;;5.37;;
24435;SDS011;12616;52.470;13.436;2023-11-19T21:53:02;13.40;;;5.37;;
24435;SDS011;12616;52.470;13.436;2023-11-19T21:55:34;15.80;;;5.20;;
24435;SDS011;12616;52.470;13.436;2023-11-19T21:58:02;12.60;;;4.57;;
24435;SDS011;12616;52.470;13.436;2023-11-19T22:00:35;10.93;;;4.83;;
24435;SDS011;12616;52.470;13.436;2023-11-19T22:03:04;11.63;;;5.43;;
24435;SDS011;12616;52.470;13.436;2023-11-19T22:05:32;11.70;;;6.23;;
24435;SDS011;12616;52.470;13.436;2023-11-19T22:08:09;14.13;;;6.70;;
24435;SDS011;12616;52.470;13.436;2023-11-19T22:10:39;12.73;;;6.03;;
24435;SDS011;12616;52.470;13.436;2023-11-19T22:13:10;20.93;;;5.50;;
24435;SDS011;12616;52.470;13.436;2023-11-19T22:15:38;14.17;;;5.60;;
24435;SDS011;12616;52.470;13.436;2023-11-19T22:18:05;13.77;;;5.00;;
24435;SDS011;12616;52.470;13.436;2023-11-19T22:20:37;8.03;;;4.73;;
24435;SDS011;12616;52.470;13.436;2023-11-19T22:23:13;17.50;;;5.20;;
24435;SDS011;12616;52.470;13.436;2023-11-19T22:25:49;16.57;;;5.87;;
24435;SDS011;12616;52.470;13.436;2023-11-19T22:28:16;14.33;;;4.90;;
24435;SDS011;12616;52.470;13.436;2023-11-19T22:30:44;18.33;;;6.33;;
24435;SDS011;12616;52.470;13.436;2023-11-19T22:33:11;9.23;;;5.37;;
24435;SDS011;12616;52.470;13.436;2023-11-19T22:35:41;11.50;;;4.70;;
24435;SDS011;12616;52.470;13.436;2023-11-19T22:38:11;9.10;;;6.70;;
24435;SDS011;12616;52.470;13.436;2023-11-19T22:40:38;9.10;;;5.80;;
24435;SDS011;12616;52.470;13.436;2023-11-19T22:43:05;10.83;;;5.63;;
24435;SDS011;12616;52.470;13.436;2023-11-19T22:45:33;11.37;;;5.17;;
24435;SDS011;12616;52.470;13.436;2023-11-19T22:48:00;12.27;;;6.00;;
24435;SDS011;12616;52.470;13.436;2023-11-19T22:50:27;9.30;;;4.90;;
24435;SDS011;12616;52.470;13.436;2023-11-19T22:52:54;12.73;;;5.17;;
24435;SDS011;12616;52.470;13.436;2023-11-19T22:55:27;14.13;;;6.17;;
24435;SDS011;12616;52.470;13.436;2023-11-19T22:57:59;13.53;;;6.00;;
24435;SDS011;12616;52.470;13.436;2023-11-19T23:00:28;10.87;;;5.40;;
24435;SDS011;12616;52.470;13.436;2023-11-19T23:02:56;17.40;;;6.53;;
24435;SDS011;12616;52.470;13.436;2023-11-19T23:05:31;7.60;;;6.57;;
24435;SDS011;12616;52.470;13.436;2023-11-19T23:08:00;10.70;;;5.80;;
24435;SDS011;12616;52.470;13.436;2023-11-19T23:10:34;17.40;;;5.50;;
24435;SDS011;12616;52.470;13.436;2023-11-19T23:13:04;15.07;;;6.03;;
24435;SDS011;12616;52.470;13.436;2023-11-19T23:15:31;18.73;;;6.70;;
24435;SDS011;12616;52.470;13.436;2023-11-19T23:17:59;13.20;;;5.70;;
24435;SDS011;12616;52.470;13.436;2023-11-19T23:20:27;9.50;;;5.47;;
24435;SDS011;12616;52.470;13.436;2023-11-19T23:22:54;12.00;;;5.63;;
24435;SDS011;12616;52.470;13.436;2023-11-19T23:25:21;12.53;;;6.27;;
24435;SDS011;12616;52.470;13.436;2023-11-19T23:27:50;10.57;;;5.43;;
24435;SDS011;12616;52.470;13.436;2023-11-19T23:30:20;10.73;;;5.30;;
24435;SDS011;12616;52.470;13.436;2023-11-19T23:32:49;14.87;;;5.80;;
24435;SDS011;12616;52.470;13.436;2023-11-19T23:35:17;9.20;;;5.10;;
24435;SDS011;12616;52.470;13.436;2023-11-19T23:37:44;7.43;;;4.80;;
24435;SDS011;12616;52.470;13.436;2023-11-19T23:40:11;11.13;;;5.10;;
24435;SDS011;12616;52.470;13.436;2023-11-19T23:42:43;19.07;;;5.50;;
24435;SDS011;12616;52.470;13.436;2023-11-19T23:45:14;13.50;;;5.37;;
24435;SDS011;12616;52.470;13.436;2023-11-19T23:47:42;15.23;;;5.60;;
24435;SDS011;12616;52.470;13.436;2023-11-19T23:50:09;10.17;;;5.00;;
24435;SDS011;12616;52.470;13.436;2023-11-19T23:52:42;11.83;;;5.60;;
24435;SDS011;12616;52.470;13.436;2023-11-19T23:55:14;11.80;;;4.80;;
24435;SDS011;12616;52.470;13.436;2023-11-19T23:57:41;11.50;;;5.47;;
